Language selection

Weather shortcuts

Northern Grand Banks: Past 24 Hour Conditions

 

East Chedabucto Bay - 44488

04:00 AM ADT 24 June 2024Buoy position: 45.45N 60.95W
Disclaimer

This table is a summary of hourly weather conditions for the past 24 hours.
Please note that these observations might not always be representative of weather conditions over their associated marine area.

Date / Time
(ADT)
Wind(knots) Wave height(m) Wave period(s) Pressure(kPa) Air tempC) Water tempC)
24 June 2024
4:00 WSW 23 gusts 28 1.15 4.0 100.0 15 11
3:00 WSW 24 gusts 30 1.28 3.9 100.1 15 11
2:00 WSW 29 gusts 35 1.27 3.8 100.0 15 11
1:00 WSW 22 gusts 29 1.06 3.5 100.2 16 11
0:00 SW 16 gusts 19 0.54 3.5 100.4 15 11
23 June 2024
23:00 SSW 18 gusts 22 0.67 3.3 100.5 13 11
22:00 SSW 15 gusts 18 0.64 3.4 100.6 13 11
21:00 S 12 gusts 16 0.58 3.2 100.7 13 11
20:00 S 14 gusts 16 0.53 2.9 100.8 13 11
19:00 SSE 12 gusts 14 0.42 2.6 100.9 13 12
18:00 SSE 10 gusts 12 0.26 2.9 101.1 13 12
17:00 S 8 gusts 9 0.22 3.0 101.2 13 12
16:00 S 9 gusts 11 0.26 2.9 101.3 12 12
15:00 S 8 gusts 9 0.30 2.7 101.4 13 12
14:00 S 10 gusts 12 0.29 2.8 101.4 13 12
13:00 S 8 gusts 10 0.29 3.0 101.5 14 12
12:00 SW 6 gusts 11 0.34 2.9 101.6 14 11
11:00 WSW 6 gusts 9 0.25 3.0 101.6 14 11
10:00 WSW 9 gusts 10 0.29 3.1 101.6 13 11
9:00 WSW 10 gusts 13 0.31 2.7 101.6 13 11
8:00 WSW 11 gusts 13 0.29 3.4 101.7 13 11
7:00 WSW 9 gusts 11 0.27 3.4 101.7 12 11
6:00 WSW 9 gusts 11 0.32 3.1 101.6 12 11
5:00 WSW 10 gusts 12 0.34 4.7 101.6 12 11
4:00 WSW 10 gusts 13 0.26 3.0 101.6 12 12

Zoom-in to make a selection

Map of Atlantic - Newfoundland marine weather areas Banquereau - 44139 East Chedabucto Bay – 44488 West Chedabucto Bay – 44489 Blanc-Sablon Airport Cap Whittle Chevery Natashquan Airport Heath Point Îles de la Madeleine Airport Miscou Island Eskasoni (First Nations) Grand Étang Ingonish Beach North Mountain St.Paul Island J.A. Douglas McCurdy Sydney Airport Charlottetown Airport East Point North Cape Argentia Berry Hill Bonavista Burgeo Cape Race Corner Brook Daniel's Harbour Englee Ferolle Point La Scie Port aux Basques Sagona Island St. Anthony Airport St. John's Int'l Airport St. Lawrence Stephenville Airport Twillingate Winterland Branch Hill Wreckhouse Grates Cove Pool's Island Marticot Island Long Pond Cartwright Airport Mary's Harbour
Legend:
buoy Buoy
land station Land Station

Atlantic - Newfoundland Area

Another Region

Features

New Predicting and Alerting Coastal Flooding Program

Find out about coastal flooding coverage, forecasts and warnings in your region

Date modified: